Time;durP1;ratioP1;P1;durP2;ratioP2;P2;SDS_P1;SDS_P2;PMS_P1;PMS_P2;Temp;Humidity;BMP_temperature;BMP_pressure;BME280_temperature;BME280_humidity;BME280_pressure;Samples;Min_cycle;Max_cycle;Signal;HPM_P1;HPM_P2
2021/06/15 00:01:25;;;;;;;6.47;2.87;;;;;;;20.07;72.04;100314.45;1838527;78;21490;-60
2021/06/15 00:03:53;;;;;;;6.40;3.27;;;;;;;20.07;72.01;100314.45;1838370;78;21075;-59
2021/06/15 00:06:21;;;;;;;6.33;2.85;;;;;;;20.08;72.01;100323.30;1838478;78;21050;-60
2021/06/15 00:08:48;;;;;;;4.20;3.10;;;;;;;20.06;72.07;100334.12;1838385;78;21641;-59
2021/06/15 00:11:16;;;;;;;4.15;2.95;;;;;;;20.04;72.10;100332.08;1838392;78;21551;-61
2021/06/15 00:13:44;;;;;;;6.25;4.08;;;;;;;20.03;72.11;100332.57;1838448;78;21542;-61
2021/06/15 00:16:12;;;;;;;5.33;3.80;;;;;;;20.04;72.17;100347.61;1838413;78;21590;-60
2021/06/15 00:18:39;;;;;;;10.72;3.72;;;;;;;20.03;72.27;100359.79;1838534;78;21442;-61
2021/06/15 00:21:07;;;;;;;11.15;3.40;;;;;;;20.02;72.40;100367.44;1838408;78;21066;-60
2021/06/15 00:23:35;;;;;;;5.70;3.58;;;;;;;20.00;72.48;100357.37;1838358;78;21070;-61
2021/06/15 00:26:02;;;;;;;6.50;3.95;;;;;;;19.97;72.40;100342.92;1838383;78;21548;-61
2021/06/15 00:28:31;;;;;;;5.28;3.12;;;;;;;19.94;72.54;100336.49;1838472;78;21473;-61
2021/06/15 00:31:00;;;;;;;9.50;2.98;;;;;;;19.88;73.01;100337.86;1838390;78;21496;-60
2021/06/15 00:33:28;;;;;;;4.33;2.45;;;;;;;19.83;73.34;100353.45;1838446;78;21140;-61
2021/06/15 00:35:55;;;;;;;11.30;3.67;;;;;;;19.80;73.39;100369.23;1838379;78;21587;-61
2021/06/15 00:38:23;;;;;;;8.68;3.70;;;;;;;19.75;73.94;100365.25;1838497;78;21556;-60
2021/06/15 00:40:51;;;;;;;7.58;3.50;;;;;;;19.69;74.29;100371.92;1838289;78;21559;-60
2021/06/15 00:43:19;;;;;;;5.42;2.85;;;;;;;19.62;74.26;100389.43;1838365;78;21139;-60
2021/06/15 00:45:47;;;;;;;5.72;3.62;;;;;;;19.54;74.49;100387.89;1838377;78;21019;-61
2021/06/15 00:48:29;;;;;;;6.85;3.95;;;;;;;19.50;74.52;100392.64;1838394;78;21075;-60
2021/06/15 00:50:57;;;;;;;7.28;4.28;;;;;;;19.46;74.69;100400.55;1838169;78;21542;-60
2021/06/15 00:53:26;;;;;;;8.20;4.28;;;;;;;19.43;74.73;100398.12;1838346;78;21592;-60
2021/06/15 00:55:55;;;;;;;5.47;3.77;;;;;;;19.40;74.91;100394.35;1838360;78;21019;-60
2021/06/15 00:58:23;;;;;;;7.55;4.12;;;;;;;19.36;74.99;100390.25;1838473;78;21549;-61
2021/06/15 01:00:52;;;;;;;7.83;4.05;;;;;;;19.33;75.13;100386.48;1838392;78;21132;-61
2021/06/15 01:03:23;;;;;;;6.40;4.25;;;;;;;19.28;75.18;100382.38;1838465;78;21567;-61
2021/06/15 01:05:52;;;;;;;6.55;4.22;;;;;;;19.24;75.29;100382.27;1838254;78;21121;-61
2021/06/15 01:08:28;;;;;;;9.55;4.03;;;;;;;19.21;75.44;100383.84;1838380;78;21046;-61
2021/06/15 01:11:02;;;;;;;9.23;4.25;;;;;;;19.16;75.57;100379.84;1838358;78;21050;-61
2021/06/15 01:13:47;;;;;;;5.55;3.58;;;;;;;19.13;75.69;100382.78;1838399;78;21144;-61
2021/06/15 01:16:37;;;;;;;8.58;4.62;;;;;;;19.08;75.87;100372.47;1837720;78;21474;-61
2021/06/15 01:19:08;;;;;;;8.58;4.58;;;;;;;19.05;76.10;100376.70;1838362;78;21501;-61
2021/06/15 01:21:39;;;;;;;7.47;4.80;;;;;;;19.02;76.36;100375.14;1838405;78;21075;-61
2021/06/15 01:24:09;;;;;;;10.32;4.70;;;;;;;19.01;76.78;100365.92;1838327;78;21035;-60
2021/06/15 01:27:01;;;;;;;14.93;5.65;;;;;;;19.00;77.12;100364.25;1836494;78;21054;-60
2021/06/15 01:29:34;;;;;;;11.08;6.30;;;;;;;18.96;77.46;100368.98;1807218;79;21088;-60
2021/06/15 01:32:11;;;;;;;13.30;6.90;;;;;;;18.92;77.71;100364.83;1807991;79;21123;-61
2021/06/15 01:34:44;;;;;;;15.90;7.65;;;;;;;18.93;77.81;100363.03;1820419;78;21058;-61
2021/06/15 01:37:24;;;;;;;13.08;8.13;;;;;;;18.95;77.87;100366.42;1838466;78;21090;-61
2021/06/15 01:39:57;;;;;;;15.83;7.08;;;;;;;18.95;77.86;100355.75;1836391;78;21536;-61
2021/06/15 01:42:40;;;;;;;14.03;8.08;;;;;;;19.02;77.87;100349.80;1838577;78;21046;-60
2021/06/15 01:45:38;;;;;;;13.98;7.58;;;;;;;19.12;77.97;100345.89;1838445;78;21112;-60
2021/06/15 01:48:31;;;;;;;13.20;6.70;;;;;;;19.12;77.93;100347.72;1807758;79;21103;-60
2021/06/15 01:51:01;;;;;;;8.78;6.28;;;;;;;19.06;78.26;100354.40;1808168;79;21076;-60
2021/06/15 01:53:30;;;;;;;10.28;6.17;;;;;;;19.06;78.27;100357.07;1826667;78;21493;-61
2021/06/15 01:56:01;;;;;;;9.98;5.65;;;;;;;19.09;78.29;100360.84;1838340;78;21195;-60
2021/06/15 01:58:33;;;;;;;9.40;4.92;;;;;;;19.05;78.34;100360.70;1848542;77;21091;-60
2021/06/15 02:01:01;;;;;;;6.47;4.72;;;;;;;19.00;78.53;100360.24;1850355;77;21110;-60
2021/06/15 02:03:31;;;;;;;9.10;5.35;;;;;;;18.98;78.75;100363.49;1850427;77;21078;-61
2021/06/15 02:06:02;;;;;;;10.65;5.90;;;;;;;18.97;79.39;100371.16;1850415;77;21046;-61
2021/06/15 02:08:38;;;;;;;8.20;5.22;;;;;;;18.97;79.55;100371.98;1850438;77;21053;-60
2021/06/15 02:11:07;;;;;;;12.43;6.22;;;;;;;18.99;79.62;100371.88;1849619;77;21054;-60
2021/06/15 02:13:40;;;;;;;10.18;5.40;;;;;;;18.97;79.54;100365.81;1850444;77;21090;-60
2021/06/15 02:16:10;;;;;;;13.43;5.90;;;;;;;18.94;79.47;100366.05;1850597;77;21069;-60
2021/06/15 02:18:39;;;;;;;13.95;5.37;;;;;;;18.89;79.80;100368.61;1850331;77;21611;-60
2021/06/15 02:21:09;;;;;;;11.53;5.92;;;;;;;18.86;80.06;100367.51;1850494;77;21053;-61
2021/06/15 02:23:39;;;;;;;9.80;5.37;;;;;;;18.87;79.80;100373.22;1850466;77;21176;-61
2021/06/15 02:26:09;;;;;;;10.15;6.15;;;;;;;18.88;79.61;100370.06;1850437;77;21110;-61
2021/06/15 02:28:38;;;;;;;10.68;6.03;;;;;;;18.86;79.80;100373.34;1850432;77;21071;-61
2021/06/15 02:31:09;;;;;;;10.20;5.70;;;;;;;18.86;80.10;100380.84;1849898;77;21022;-61
2021/06/15 02:33:39;;;;;;;12.98;5.03;;;;;;;18.89;79.84;100383.28;1849760;77;21492;-62
2021/06/15 02:36:10;;;;;;;14.20;6.10;;;;;;;18.93;79.92;100379.88;1850243;77;21133;-62
2021/06/15 02:38:40;;;;;;;10.50;5.00;;;;;;;18.95;79.79;100375.77;1850383;77;21074;-62
2021/06/15 02:41:11;;;;;;;11.22;5.42;;;;;;;18.99;79.63;100367.38;1850615;77;21177;-61
2021/06/15 02:43:41;;;;;;;9.48;5.70;;;;;;;19.04;79.39;100368.36;1850312;77;21526;-61
2021/06/15 02:46:11;;;;;;;12.28;5.67;;;;;;;19.05;79.31;100363.36;1850566;77;21110;-60
2021/06/15 02:48:41;;;;;;;13.13;6.95;;;;;;;19.10;79.30;100365.18;1850351;77;21132;-60
2021/06/15 02:51:11;;;;;;;11.90;8.35;;;;;;;19.20;79.33;100368.81;1850430;77;21110;-60
2021/06/15 02:53:44;;;;;;;9.33;6.70;;;;;;;19.29;79.27;100381.41;1850435;77;21074;-60
2021/06/15 02:56:18;;;;;;;13.15;6.50;;;;;;;19.31;79.22;100380.42;1850295;77;21133;-60
2021/06/15 02:58:47;;;;;;;10.88;6.30;;;;;;;19.32;79.04;100380.80;1850311;77;21114;-60
2021/06/15 03:01:15;;;;;;;11.88;6.17;;;;;;;19.37;78.92;100382.61;1850414;77;21136;-60
2021/06/15 03:03:43;;;;;;;9.95;5.15;;;;;;;19.40;78.79;100381.00;1850351;77;21121;-60
2021/06/15 03:06:11;;;;;;;10.63;6.15;;;;;;;19.45;78.69;100388.16;1850486;77;21549;-60
2021/06/15 03:08:41;;;;;;;11.53;7.70;;;;;;;19.51;78.58;100399.66;1850400;77;21566;-61
2021/06/15 03:11:10;;;;;;;11.50;8.88;;;;;;;19.56;78.48;100414.82;1850480;77;21044;-60
2021/06/15 03:13:40;;;;;;;15.48;9.95;;;;;;;19.59;78.34;100419.92;1850359;77;21044;-61
2021/06/15 03:16:11;;;;;;;13.65;11.57;;;;;;;19.63;78.25;100421.86;1850496;77;21059;-60
2021/06/15 03:19:04;;;;;;;20.95;15.35;;;;;;;19.60;78.26;100430.95;1850337;77;21053;-61
2021/06/15 03:21:34;;;;;;;22.17;11.33;;;;;;;19.55;78.23;100431.84;1850507;77;21067;-61
2021/06/15 03:24:08;;;;;;;19.95;12.55;;;;;;;19.53;78.26;100443.13;1850522;77;21452;-61
2021/06/15 03:26:51;;;;;;;21.33;14.87;;;;;;;19.50;78.35;100434.03;1850478;77;21083;-61
2021/06/15 03:29:24;;;;;;;21.20;10.97;;;;;;;19.52;78.29;100430.74;1795465;77;21054;-61
2021/06/15 03:31:53;;;;;;;12.25;9.23;;;;;;;19.57;78.16;100435.69;1850366;77;21150;-61
2021/06/15 03:34:24;;;;;;;13.22;7.92;;;;;;;19.59;78.17;100434.61;1850525;77;21098;-61
2021/06/15 03:36:53;;;;;;;17.92;10.05;;;;;;;19.62;78.09;100436.17;1850325;77;21572;-61
2021/06/15 03:39:23;;;;;;;20.70;10.55;;;;;;;19.66;77.94;100441.15;1850401;77;21033;-60
2021/06/15 03:41:54;;;;;;;13.08;6.87;;;;;;;19.70;77.92;100444.88;1850333;77;21069;-62
2021/06/15 03:44:22;;;;;;;12.20;7.17;;;;;;;19.70;77.91;100450.23;1850476;77;21168;-61
2021/06/15 03:46:53;;;;;;;15.63;6.42;;;;;;;19.73;77.79;100458.03;1850369;77;21188;-61
2021/06/15 03:49:23;;;;;;;17.67;6.05;;;;;;;19.75;77.73;100462.76;1850526;77;21145;-61
2021/06/15 03:51:55;;;;;;;14.43;6.90;;;;;;;19.76;77.64;100471.14;1850498;77;21079;-61
2021/06/15 03:54:24;;;;;;;21.42;7.25;;;;;;;19.80;77.54;100472.58;1850716;77;21071;-62
2021/06/15 03:56:55;;;;;;;8.70;5.45;;;;;;;19.86;77.49;100469.39;1850492;77;21111;-61
2021/06/15 03:59:30;;;;;;;10.05;5.90;;;;;;;19.93;77.39;100473.27;1841745;77;21094;-61
2021/06/15 04:02:02;;;;;;;26.87;10.23;;;;;;;19.98;77.52;100472.89;1838455;78;21525;-61
2021/06/15 04:04:33;;;;;;;12.47;7.80;;;;;;;20.03;77.41;100473.37;1838393;78;21095;-62
2021/06/15 04:07:03;;;;;;;57.83;19.62;;;;;;;20.13;77.32;100477.45;1838426;78;21482;-61
2021/06/15 04:09:33;;;;;;;12.78;6.55;;;;;;;20.28;77.26;100474.82;1838416;78;21143;-61
2021/06/15 04:12:02;;;;;;;10.58;6.95;;;;;;;20.41;77.02;100470.13;1838350;78;21078;-61
2021/06/15 04:14:31;;;;;;;26.33;10.05;;;;;;;20.48;76.79;100469.62;1838405;78;21578;-61
2021/06/15 04:17:00;;;;;;;20.08;7.75;;;;;;;20.51;76.67;100479.57;1838429;78;21758;-61
2021/06/15 04:19:33;;;;;;;12.68;6.10;;;;;;;20.58;76.54;100474.53;1838432;78;21108;-61
2021/06/15 04:22:03;;;;;;;8.90;5.70;;;;;;;20.62;76.31;100477.36;1838478;78;21027;-62
2021/06/15 04:24:34;;;;;;;9.08;5.37;;;;;;;20.62;76.10;100473.34;1838376;78;21603;-61
2021/06/15 04:27:01;;;;;;;11.20;5.72;;;;;;;20.62;75.96;100476.86;1838437;78;21039;-61
2021/06/15 04:29:30;;;;;;;10.98;5.20;;;;;;;20.64;75.96;100470.05;1838414;78;21462;-61
2021/06/15 04:32:01;;;;;;;16.02;5.50;;;;;;;20.64;75.91;100474.05;1838350;78;21129;-62
2021/06/15 04:34:30;;;;;;;13.68;5.08;;;;;;;20.66;75.84;100468.08;1838373;78;21043;-61
2021/06/15 04:37:00;;;;;;;9.38;3.98;;;;;;;20.70;75.71;100464.16;1838355;78;21054;-61
2021/06/15 04:39:31;;;;;;;9.45;4.45;;;;;;;20.75;75.39;100471.30;1838384;78;21019;-61
2021/06/15 04:42:06;;;;;;;9.15;3.92;;;;;;;20.81;75.07;100469.42;1838235;78;21079;-62
2021/06/15 04:44:39;;;;;;;7.40;3.77;;;;;;;20.89;74.75;100467.91;1838247;78;21079;-63
2021/06/15 04:47:08;;;;;;;;;;;;;;;20.96;74.33;100474.43;1841023;78;21054;-61
2021/06/15 04:50:00;;;;;;;9.00;3.80;;;;;;;21.04;73.93;100465.73;1837855;78;20444;-61
2021/06/15 04:52:30;;;;;;;10.18;3.65;;;;;;;21.10;73.63;100467.39;1836286;78;21173;-61
2021/06/15 04:55:01;;;;;;;9.93;4.03;;;;;;;21.23;73.57;100464.95;1838309;78;21078;-63
2021/06/15 04:57:35;;;;;;;7.95;3.80;;;;;;;21.31;73.10;100463.30;1838460;78;21078;-61
2021/06/15 05:00:03;;;;;;;11.55;4.08;;;;;;;21.43;72.83;100467.20;1846935;77;21117;-62
2021/06/15 05:02:32;;;;;;;7.85;3.60;;;;;;;21.54;72.30;100466.64;1850455;77;21156;-62
2021/06/15 05:05:00;;;;;;;6.83;3.52;;;;;;;21.68;72.15;100468.56;1850452;77;21118;-62
2021/06/15 05:07:29;;;;;;;6.87;3.40;;;;;;;21.83;71.96;100471.19;1850486;77;21031;-62
2021/06/15 05:10:02;;;;;;;12.43;5.95;;;;;;;21.96;71.35;100473.09;1850423;77;21591;-62
2021/06/15 05:12:34;;;;;;;;;;;;;;;22.10;71.11;100473.69;1853420;77;21124;-62
2021/06/15 05:15:07;;;;;;;10.38;3.83;;;;;;;22.27;70.98;100464.95;1850221;77;20417;-63
2021/06/15 05:17:36;;;;;;;12.30;4.00;;;;;;;22.38;70.31;100480.55;1850456;77;21149;-61
2021/06/15 05:20:08;;;;;;;7.85;3.22;;;;;;;22.49;70.23;100466.98;1850332;77;21145;-62
2021/06/15 05:22:47;;;;;;;9.05;4.15;;;;;;;22.66;70.14;100474.27;1850454;77;21207;-61
2021/06/15 05:25:17;;;;;;;6.83;4.30;;;;;;;22.93;69.82;100471.31;1850410;77;21117;-61
2021/06/15 05:27:46;;;;;;;11.10;4.17;;;;;;;23.30;69.33;100467.80;1850421;77;21058;-61
2021/06/15 05:30:14;;;;;;;10.18;4.47;;;;;;;23.59;68.89;100462.73;1850455;77;21623;-62
2021/06/15 05:32:42;;;;;;;9.25;3.95;;;;;;;23.84;68.37;100463.89;1850383;77;21156;-61
2021/06/15 05:35:11;;;;;;;9.15;4.20;;;;;;;24.00;67.47;100461.86;1850532;77;21083;-61
2021/06/15 05:37:40;;;;;;;9.43;4.00;;;;;;;24.28;67.26;100468.82;1850472;77;21038;-61
2021/06/15 05:40:09;;;;;;;13.32;4.33;;;;;;;24.54;66.08;100460.47;1850625;77;21058;-61
2021/06/15 05:42:37;;;;;;;7.17;3.50;;;;;;;24.62;65.61;100464.08;1850449;77;21071;-62
2021/06/15 05:45:07;;;;;;;5.40;3.08;;;;;;;24.53;64.13;100471.75;1850323;77;21532;-62
2021/06/15 05:47:36;;;;;;;7.92;3.72;;;;;;;24.39;63.56;100469.08;1850555;77;21050;-61
2021/06/15 05:50:06;;;;;;;10.68;2.85;;;;;;;24.54;63.83;100464.00;1850445;77;21353;-61
2021/06/15 05:52:35;;;;;;;7.55;3.30;;;;;;;24.74;63.42;100461.11;1850543;77;21094;-61
2021/06/15 05:55:04;;;;;;;6.08;2.77;;;;;;;24.82;62.90;100451.73;1850540;77;21533;-61
2021/06/15 05:57:32;;;;;;;6.72;3.10;;;;;;;24.81;62.31;100463.01;1850550;77;21065;-62
2021/06/15 06:00:01;;;;;;;6.00;2.65;;;;;;;24.65;61.03;100459.70;1850485;77;21592;-61
2021/06/15 06:02:29;;;;;;;5.37;2.95;;;;;;;24.55;60.99;100452.25;1850559;77;21050;-61
2021/06/15 06:10:13;;;;;;;7.42;2.83;;;;;;;26.05;59.33;100462.97;1850250;77;21074;-62
2021/06/15 06:12:42;;;;;;;7.67;2.80;;;;;;;26.69;56.97;100460.92;1850414;77;21103;-62
2021/06/15 06:15:13;;;;;;;4.37;1.92;;;;;;;27.30;55.91;100459.41;1850441;77;21565;-61
2021/06/15 06:17:43;;;;;;;5.83;1.98;;;;;;;27.69;52.50;100461.22;1850420;77;21169;-61
2021/06/15 06:20:14;;;;;;;5.95;2.27;;;;;;;28.00;52.53;100453.62;1850211;77;21077;-61
2021/06/15 06:22:42;;;;;;;7.67;3.05;;;;;;;28.38;52.54;100455.49;1850326;77;21083;-61
2021/06/15 06:25:17;;;;;;;6.90;2.33;;;;;;;28.65;51.87;100459.50;1850416;77;21030;-61
2021/06/15 06:27:42;;;;;;;5.25;2.20;;;;;;;28.95;50.66;100455.44;1849047;77;21177;-62
2021/06/15 06:30:11;;;;;;;6.33;2.25;;;;;;;29.06;49.00;100452.26;1850428;77;21549;-61
2021/06/15 06:32:39;;;;;;;2.80;1.70;;;;;;;29.21;48.61;100453.63;1850418;77;21082;-61
2021/06/15 06:35:08;;;;;;;7.35;2.27;;;;;;;29.29;45.79;100449.47;1850282;77;21627;-61
2021/06/15 06:37:36;;;;;;;4.25;1.87;;;;;;;29.29;43.90;100440.47;1850426;77;21152;-61
2021/06/15 06:40:06;;;;;;;3.75;1.77;;;;;;;29.31;44.49;100460.97;1850513;77;21091;-61
2021/06/15 06:42:34;;;;;;;4.35;1.47;;;;;;;29.41;43.62;100466.08;1850382;77;21083;-61
2021/06/15 06:45:02;;;;;;;2.10;1.60;;;;;;;29.36;42.65;100457.67;1850374;77;21538;-62
2021/06/15 06:47:30;;;;;;;6.25;1.75;;;;;;;29.51;42.40;100455.78;1850389;77;21532;-62
2021/06/15 06:49:58;;;;;;;4.20;1.82;;;;;;;29.56;41.84;100455.20;1850354;77;21063;-62
2021/06/15 06:52:25;;;;;;;3.95;1.47;;;;;;;29.73;41.44;100465.29;1859636;77;21113;-62
2021/06/15 06:54:53;;;;;;;9.38;1.92;;;;;;;29.80;41.59;100460.81;1850413;77;21549;-61
2021/06/15 06:57:21;;;;;;;4.78;1.52;;;;;;;29.78;41.57;100465.06;1850481;77;21595;-61
2021/06/15 06:59:49;;;;;;;2.70;1.62;;;;;;;29.92;41.38;100463.34;1850476;77;21545;-62
2021/06/15 07:02:17;;;;;;;4.25;1.80;;;;;;;29.84;40.12;100456.67;1850226;77;21118;-62
2021/06/15 07:04:45;;;;;;;6.62;2.05;;;;;;;29.98;41.27;100463.92;1850415;77;21251;-61
2021/06/15 07:07:13;;;;;;;9.80;1.92;;;;;;;30.30;40.29;100462.21;1850439;77;21026;-61
2021/06/15 07:09:41;;;;;;;4.72;1.87;;;;;;;30.51;40.07;100460.86;1850481;77;21553;-62
2021/06/15 07:12:09;;;;;;;6.42;1.72;;;;;;;30.40;39.45;100469.02;1850471;77;21591;-61
2021/06/15 07:14:37;;;;;;;5.33;1.70;;;;;;;30.48;39.91;100465.31;1850326;77;21083;-62
2021/06/15 07:17:05;;;;;;;4.33;2.00;;;;;;;30.57;39.61;100468.73;1850386;77;21093;-61
2021/06/15 07:19:33;;;;;;;3.50;1.72;;;;;;;30.45;38.88;100464.87;1850587;77;21053;-62
2021/06/15 07:22:01;;;;;;;5.47;2.08;;;;;;;30.54;39.16;100471.84;1850371;77;21124;-61
2021/06/15 07:24:29;;;;;;;8.23;2.25;;;;;;;30.75;39.07;100469.59;1850514;77;21086;-61
2021/06/15 07:26:57;;;;;;;6.62;2.95;;;;;;;31.03;39.24;100477.73;1850462;77;21073;-61
2021/06/15 07:29:26;;;;;;;5.85;2.37;;;;;;;31.14;41.49;100477.16;1850376;77;21124;-62
2021/06/15 07:31:54;;;;;;;5.42;2.70;;;;;;;31.14;42.32;100474.97;1850581;77;21023;-61
2021/06/15 07:34:43;;;;;;;9.55;2.58;;;;;;;31.02;42.40;100476.04;1850493;77;21071;-61
2021/06/15 07:37:11;;;;;;;7.60;3.20;;;;;;;30.21;43.72;100482.73;1979484;72;21023;-61
2021/06/15 07:39:38;;;;;;;6.97;3.25;;;;;;;29.70;44.89;100483.33;1979455;72;21034;-61
2021/06/15 07:42:07;;;;;;;7.42;2.65;;;;;;;29.30;45.75;100485.55;1979633;72;21097;-61
2021/06/15 07:44:35;;;;;;;6.72;3.33;;;;;;;29.41;46.10;100483.71;1979562;72;21151;-61
2021/06/15 07:47:04;;;;;;;7.97;3.20;;;;;;;29.05;46.83;100481.24;1979458;72;21046;-62
2021/06/15 07:49:31;;;;;;;8.18;3.72;;;;;;;28.66;47.54;100499.95;1979519;72;21022;-61
2021/06/15 07:52:00;;;;;;;4.67;3.08;;;;;;;28.47;48.78;100501.26;1979619;72;21104;-61
2021/06/15 07:54:27;;;;;;;6.08;3.10;;;;;;;28.85;48.05;100506.69;1979433;72;21046;-62
2021/06/15 07:56:55;;;;;;;4.83;3.15;;;;;;;29.18;48.02;100498.23;1979628;72;21089;-62
2021/06/15 07:59:23;;;;;;;6.70;3.00;;;;;;;29.04;47.78;100501.75;1979520;72;21453;-61
2021/06/15 08:01:51;;;;;;;6.35;3.02;;;;;;;29.14;47.91;100501.00;1979549;72;21112;-61
2021/06/15 08:04:18;;;;;;;6.95;3.30;;;;;;;29.19;47.53;100499.90;1979638;72;21030;-61
2021/06/15 08:06:46;;;;;;;4.35;2.70;;;;;;;29.63;47.20;100494.92;1979509;72;21519;-62
2021/06/15 08:09:14;;;;;;;5.78;3.00;;;;;;;29.97;46.90;100499.39;1979581;72;21859;-61
2021/06/15 08:11:42;;;;;;;6.15;3.25;;;;;;;30.62;45.77;100501.59;1979635;72;21018;-62
2021/06/15 08:14:12;;;;;;;6.87;2.98;;;;;;;31.25;45.61;100506.20;1979538;72;21027;-61
2021/06/15 08:16:39;;;;;;;6.22;3.15;;;;;;;31.78;44.28;100500.14;1979557;72;21116;-61
2021/06/15 08:19:07;;;;;;;6.78;2.75;;;;;;;32.00;41.88;100501.67;1979536;72;21031;-61
2021/06/15 08:21:35;;;;;;;5.00;2.37;;;;;;;32.17;42.29;100499.42;1979388;72;21508;-62
2021/06/15 08:24:04;;;;;;;15.20;3.50;;;;;;;32.22;40.65;100501.50;1979524;72;21085;-61
2021/06/15 08:26:32;;;;;;;6.62;3.15;;;;;;;32.10;41.47;100504.02;1979512;72;21018;-62
2021/06/15 08:29:01;;;;;;;7.53;3.05;;;;;;;31.76;41.31;100503.05;1979553;72;21023;-61
2021/06/15 08:31:29;;;;;;;4.05;2.90;;;;;;;31.62;42.77;100506.80;1979672;72;21022;-61
2021/06/15 08:33:56;;;;;;;6.33;2.98;;;;;;;32.06;43.01;100502.23;1979426;72;21457;-61
2021/06/15 08:36:25;;;;;;;6.67;2.77;;;;;;;32.55;42.43;100491.97;1979534;72;21538;-61
2021/06/15 08:38:53;;;;;;;5.65;2.83;;;;;;;31.97;41.47;100510.78;1979543;72;21030;-61
2021/06/15 08:41:21;;;;;;;9.13;2.77;;;;;;;31.45;42.65;100509.84;1979588;72;21423;-62
2021/06/15 08:43:50;;;;;;;6.53;2.55;;;;;;;31.64;42.83;100515.60;1979517;72;21419;-62
2021/06/15 08:46:19;;;;;;;5.12;3.22;;;;;;;31.68;42.08;100511.42;1979433;72;20991;-62
2021/06/15 08:48:47;;;;;;;7.70;2.80;;;;;;;31.10;43.31;100523.48;1979440;72;21034;-62
2021/06/15 08:51:15;;;;;;;6.28;2.87;;;;;;;31.11;43.34;100514.27;1979593;72;21043;-62
2021/06/15 08:53:44;;;;;;;6.65;3.10;;;;;;;31.35;42.81;100514.81;1979504;72;21511;-61
2021/06/15 08:56:15;;;;;;;5.90;2.80;;;;;;;31.33;42.43;100519.62;1979481;72;21084;-61
2021/06/15 08:58:48;;;;;;;8.08;3.70;;;;;;;30.60;42.89;100513.18;1979047;72;21023;-61
2021/06/15 09:01:15;;;;;;;4.30;2.72;;;;;;;29.76;44.17;100516.50;1978518;72;21100;-61
2021/06/15 09:03:43;;;;;;;6.75;3.00;;;;;;;29.34;45.70;100522.10;1979720;72;21100;-61
2021/06/15 09:06:11;;;;;;;6.35;3.00;;;;;;;29.15;45.81;100524.36;1979545;72;21461;-61
2021/06/15 09:08:59;;;;;;;6.97;2.58;;;;;;;29.07;45.95;100514.42;1979464;72;21109;-61
2021/06/15 09:11:29;;;;;;;1.98;1.35;;;;;;;29.09;45.76;100525.08;1979451;72;21018;-62
2021/06/15 09:13:57;;;;;;;2.50;1.50;;;;;;;29.61;41.70;100524.13;1979504;72;21136;-61
2021/06/15 09:16:36;;;;;;;7.70;2.10;;;;;;;30.05;39.88;100528.31;1979493;72;21499;-62
2021/06/15 09:19:01;;;;;;;4.00;1.82;;;;;;;30.62;39.12;100530.61;1977582;72;21458;-61
2021/06/15 09:21:35;;;;;;;2.83;1.85;;;;;;;30.59;39.25;100529.14;1979589;72;21038;-61
2021/06/15 09:24:12;;;;;;;2.77;1.70;;;;;;;30.44;39.40;100533.83;1979488;72;21058;-63
2021/06/15 09:27:09;;;;;;;3.83;2.35;;;;;;;30.41;39.81;100529.61;1979452;72;21015;-61
2021/06/15 09:29:55;;;;;;;5.58;2.83;;;;;;;30.45;40.26;100531.42;1979496;72;21127;-61
2021/06/15 09:32:46;;;;;;;6.22;2.75;;;;;;;30.47;42.85;100527.98;1979364;72;21019;-61
2021/06/15 09:35:16;;;;;;;8.48;3.95;;;;;;;30.32;43.83;100523.47;1979279;72;21024;-61
2021/06/15 09:37:54;;;;;;;8.95;3.83;;;;;;;29.80;45.34;100540.86;1979497;72;21107;-61
2021/06/15 09:40:31;;;;;;;5.37;3.08;;;;;;;29.39;46.84;100535.42;1979468;72;21024;-61
2021/06/15 09:43:11;;;;;;;4.60;2.92;;;;;;;29.00;47.66;100546.00;1979422;72;21090;-61
2021/06/15 09:45:47;;;;;;;7.08;3.47;;;;;;;28.74;48.19;100545.08;1979604;72;21042;-61
2021/06/15 09:48:27;;;;;;;11.03;3.80;;;;;;;28.68;48.23;100550.72;1979438;72;21085;-61
2021/06/15 09:51:16;;;;;;;9.43;3.67;;;;;;;28.56;48.54;100544.05;1979331;72;21086;-61
2021/06/15 09:53:43;;;;;;;13.88;4.03;;;;;;;28.23;49.39;100558.32;1977212;72;21059;-61
2021/06/15 09:56:15;;;;;;;7.72;3.37;;;;;;;27.98;50.27;100540.90;1979303;72;21079;-61
2021/06/15 09:58:51;;;;;;;5.58;3.20;;;;;;;27.87;50.42;100552.09;1979143;72;21039;-61
2021/06/15 10:01:33;;;;;;;9.05;3.10;;;;;;;28.30;50.38;100545.75;1979396;72;21439;-62
2021/06/15 10:04:20;;;;;;;8.70;3.42;;;;;;;28.83;48.89;100543.98;1978847;72;21172;-62
2021/06/15 10:06:50;;;;;;;6.05;3.00;;;;;;;29.39;46.91;100542.20;1979509;72;21050;-61
2021/06/15 10:09:29;;;;;;;6.65;3.37;;;;;;;29.83;46.49;100544.03;1979567;72;21022;-62
2021/06/15 10:12:02;;;;;;;7.80;3.25;;;;;;;29.78;45.26;100542.92;1979354;72;21058;-62
2021/06/15 10:14:32;;;;;;;6.62;3.08;;;;;;;29.68;45.85;100529.64;1979462;72;21015;-61
2021/06/15 10:17:01;;;;;;;6.90;2.70;;;;;;;29.86;45.22;100540.09;1979449;72;21019;-61
2021/06/15 10:19:29;;;;;;;7.37;2.85;;;;;;;29.99;45.05;100534.83;1979441;72;21477;-61
2021/06/15 10:21:58;;;;;;;9.00;2.98;;;;;;;29.78;43.43;100548.36;1979463;72;21014;-61
2021/06/15 10:24:26;;;;;;;9.63;2.80;;;;;;;29.21;44.52;100539.86;1979411;72;21113;-62
2021/06/15 10:26:55;;;;;;;12.28;7.62;;;;;;;28.97;45.89;100536.05;1979388;72;21077;-61
2021/06/15 10:29:25;;;;;;;8.55;2.70;;;;;;;28.94;46.21;100534.56;1979472;72;21117;-61
2021/06/15 10:31:54;;;;;;;8.25;3.12;;;;;;;28.98;46.64;100541.80;1979515;72;21023;-61
2021/06/15 10:34:47;;;;;;;10.38;3.25;;;;;;;28.82;46.03;100538.21;1979443;72;21019;-61
2021/06/15 10:37:37;;;;;;;6.55;2.90;;;;;;;28.90;45.87;100542.70;1979331;72;22021;-61
2021/06/15 10:40:16;;;;;;;7.92;2.87;;;;;;;28.96;44.85;100527.60;1958172;72;21140;-61
2021/06/15 10:42:50;;;;;;;5.85;3.20;;;;;;;28.82;44.66;100531.44;1979476;72;21481;-61
2021/06/15 10:45:28;;;;;;;5.15;2.15;;;;;;;28.65;45.05;100520.45;1955990;72;21031;-61
2021/06/15 10:48:12;;;;;;;6.20;2.60;;;;;;;28.48;44.65;100526.50;1979431;72;21042;-61
2021/06/15 10:50:42;;;;;;;3.87;2.17;;;;;;;28.16;44.56;100526.22;1979599;72;21050;-61
2021/06/15 10:53:12;;;;;;;4.55;2.40;;;;;;;27.81;46.59;100527.09;1979451;72;21096;-62
2021/06/15 10:55:51;;;;;;;4.50;2.50;;;;;;;27.79;46.35;100516.96;1979352;72;21006;-62
2021/06/15 10:58:34;;;;;;;4.15;2.10;;;;;;;27.61;46.75;100523.49;1979504;72;21092;-61
2021/06/15 11:01:16;;;;;;;4.12;2.40;;;;;;;27.62;46.51;100521.10;1962969;72;21465;-62
2021/06/15 11:03:49;;;;;;;9.45;3.92;;;;;;;27.64;46.55;100516.36;1979869;72;21015;-62
2021/06/15 11:06:20;;;;;;;10.50;3.15;;;;;;;27.66;46.34;100514.31;1978733;72;21046;-62
2021/06/15 11:08:49;;;;;;;5.12;2.60;;;;;;;27.64;45.67;100517.70;1975488;72;21088;-61
2021/06/15 11:11:21;;;;;;;5.35;2.67;;;;;;;27.69;46.18;100514.48;1979693;72;21035;-61
2021/06/15 11:13:51;;;;;;;6.58;2.40;;;;;;;27.84;46.71;100522.69;1979688;72;21034;-61
2021/06/15 11:16:37;;;;;;;4.83;2.35;;;;;;;27.80;46.44;100511.89;1979578;72;21100;-61
2021/06/15 11:19:14;;;;;;;5.62;2.42;;;;;;;27.55;46.41;100524.17;1979007;72;21022;-61
2021/06/15 11:21:51;;;;;;;17.77;9.15;;;;;;;27.47;46.92;100524.23;1979602;72;21100;-61
2021/06/15 11:24:24;;;;;;;7.50;4.33;;;;;;;27.54;47.33;100526.05;1979552;72;21007;-61
2021/06/15 11:26:54;;;;;;;6.12;2.00;;;;;;;27.56;46.70;100543.45;1979679;72;21034;-61
2021/06/15 11:29:38;;;;;;;3.60;2.05;;;;;;;27.57;45.86;100531.59;1979584;72;21453;-61
2021/06/15 11:32:26;;;;;;;4.17;2.30;;;;;;;27.48;45.85;100537.58;1979634;72;20999;-61
2021/06/15 11:34:59;;;;;;;5.08;2.08;;;;;;;27.47;45.79;100543.16;1979542;72;21035;-61
2021/06/15 11:37:39;;;;;;;6.75;3.08;;;;;;;27.25;45.94;100546.91;1979526;72;21058;-63
2021/06/15 11:40:22;;;;;;;6.35;2.62;;;;;;;27.26;46.44;100549.98;1979844;72;21108;-61
2021/06/15 11:42:58;;;;;;;4.47;2.37;;;;;;;27.27;46.98;100566.52;1980010;72;21091;-62
2021/06/15 11:45:34;;;;;;;5.45;2.37;;;;;;;27.37;45.29;100556.02;1980081;72;21147;-62
2021/06/15 11:48:30;;;;;;;5.87;2.22;;;;;;;27.38;45.36;100556.37;1977524;72;21023;-62